Time;durP1;ratioP1;P1;durP2;ratioP2;P2;SDS_P1;SDS_P2;PMS_P1;PMS_P2;Temp;Humidity;BMP_temperature;BMP_pressure;BME280_temperature;BME280_humidity;BME280_pressure;Samples;Min_cycle;Max_cycle;Signal;HPM_P1;HPM_P2
2021/04/30 00:01:56;;;;;;;23.92;15.57;;;;;;;10.89;54.78;101062.06;4890231;28;119080;-73
2021/04/30 00:04:22;;;;;;;23.20;15.43;;;;;;;10.91;54.58;101058.41;4883898;28;118153;-73
2021/04/30 00:06:49;;;;;;;22.92;14.68;;;;;;;10.91;54.81;101060.19;4864397;28;122859;-73
2021/04/30 00:09:17;;;;;;;25.63;15.32;;;;;;;10.90;54.98;101058.47;4876511;28;123750;-73
2021/04/30 00:11:44;;;;;;;28.48;15.38;;;;;;;10.90;54.74;101055.81;4867804;28;119250;-73
2021/04/30 00:14:11;;;;;;;26.35;16.17;;;;;;;10.90;55.09;101056.66;4858271;28;118412;-72
2021/04/30 00:16:39;;;;;;;22.20;15.05;;;;;;;10.90;54.81;101053.16;4859433;28;123449;-73
2021/04/30 00:19:07;;;;;;;26.60;15.88;;;;;;;10.91;54.86;101054.91;4859225;28;123423;-72
2021/04/30 00:21:36;;;;;;;22.15;15.75;;;;;;;10.91;55.07;101049.59;4878828;28;119091;-73
2021/04/30 00:24:06;;;;;;;25.80;16.23;;;;;;;10.90;55.16;101061.13;4876233;28;119107;-73
2021/04/30 00:26:33;;;;;;;23.65;16.00;;;;;;;10.90;55.20;101053.16;4873986;28;122843;-72
2021/04/30 00:28:59;;;;;;;31.02;16.13;;;;;;;10.88;55.00;101055.88;4860473;28;123127;-73
2021/04/30 00:31:26;;;;;;;25.50;16.10;;;;;;;10.88;55.29;101055.03;4872102;28;118567;-73
2021/04/30 00:33:53;;;;;;;27.83;16.25;;;;;;;10.89;55.28;101052.31;4875463;28;119187;-73
2021/04/30 00:36:20;;;;;;;28.48;16.88;;;;;;;10.89;55.32;101056.75;4880600;28;124060;-73
2021/04/30 00:38:46;;;;;;;24.88;16.05;;;;;;;10.89;54.99;101051.47;4881941;28;125117;-73
2021/04/30 00:41:13;;;;;;;31.33;17.23;;;;;;;10.89;55.45;101056.75;4883859;28;120065;-74
2021/04/30 00:43:51;;;;;;;30.83;17.20;;;;;;;10.90;55.26;101053.16;4877323;28;122797;-73
2021/04/30 00:46:17;;;;;;;36.58;17.38;;;;;;;10.90;55.46;101053.16;4868675;28;123947;-73
2021/04/30 00:48:44;;;;;;;32.40;16.67;;;;;;;10.90;55.22;101053.16;4859463;28;121654;-73
2021/04/30 00:51:10;;;;;;;25.38;16.58;;;;;;;10.90;55.20;101058.47;4853333;28;119932;-73
2021/04/30 00:53:37;;;;;;;30.38;17.90;;;;;;;10.91;55.42;101049.59;4867631;28;117942;-73
2021/04/30 00:56:05;;;;;;;29.42;16.45;;;;;;;10.93;55.40;101052.19;4870904;28;124305;-73
2021/04/30 00:58:32;;;;;;;30.75;17.52;;;;;;;10.93;55.19;101053.03;4868849;28;123842;-73
2021/04/30 01:00:58;;;;;;;27.67;16.88;;;;;;;10.93;55.59;101053.03;4877232;28;119579;-73
2021/04/30 01:03:25;;;;;;;26.08;16.98;;;;;;;10.93;55.71;101057.50;4876104;28;118771;-73
2021/04/30 01:05:51;;;;;;;23.02;16.95;;;;;;;10.94;55.73;101060.03;4869190;28;123736;-72
2021/04/30 01:08:18;;;;;;;25.58;16.13;;;;;;;10.96;55.52;101063.50;4872723;28;122781;-73
2021/04/30 01:10:45;;;;;;;26.48;16.13;;;;;;;10.96;55.42;101068.78;4870807;28;119311;-73
2021/04/30 01:13:13;;;;;;;25.20;15.43;;;;;;;10.96;55.68;101068.78;4866820;28;117481;-73
2021/04/30 01:15:40;;;;;;;27.63;15.35;;;;;;;10.96;55.42;101074.09;4877261;28;124178;-73
2021/04/30 01:18:07;;;;;;;27.42;16.15;;;;;;;10.96;55.73;101074.09;4871885;28;123060;-73
2021/04/30 01:20:34;;;;;;;24.27;14.88;;;;;;;10.95;55.70;101077.69;4884089;28;121696;-73
2021/04/30 01:23:01;;;;;;;26.90;15.52;;;;;;;10.95;55.54;101082.97;4881727;28;119143;-73
2021/04/30 01:25:31;;;;;;;20.27;15.00;;;;;;;10.95;55.77;101082.97;4859784;28;122963;-73
2021/04/30 01:27:58;;;;;;;24.70;15.27;;;;;;;10.95;55.46;101077.69;4873430;28;123730;-72
2021/04/30 01:30:27;;;;;;;23.95;14.77;;;;;;;10.94;55.45;101086.53;4858881;28;119198;-73
2021/04/30 01:32:54;;;;;;;21.80;14.48;;;;;;;10.93;55.60;101084.84;4880143;28;120044;-72
2021/04/30 01:35:27;;;;;;;21.67;14.65;;;;;;;10.91;55.68;101092.00;4867720;28;123986;-73
2021/04/30 01:37:54;;;;;;;22.70;15.20;;;;;;;10.93;55.63;101090.16;4880038;28;123744;-73
2021/04/30 01:40:24;;;;;;;20.95;14.55;;;;;;;10.93;55.91;101095.44;4880009;28;118591;-73
2021/04/30 01:43:02;;;;;;;23.65;14.90;;;;;;;10.92;55.72;101099.00;4878851;28;119112;-73
2021/04/30 01:45:33;;;;;;;23.73;14.25;;;;;;;10.92;55.85;101104.31;4879128;28;123912;-73
2021/04/30 01:47:59;;;;;;;25.17;14.85;;;;;;;10.91;55.75;101098.16;4869712;28;123467;-73
2021/04/30 01:50:26;;;;;;;21.67;14.35;;;;;;;10.91;55.76;101102.59;4882402;28;120444;-73
2021/04/30 01:52:53;;;;;;;21.35;13.82;;;;;;;10.88;55.75;101105.38;4876229;28;119205;-72
2021/04/30 01:55:24;;;;;;;28.50;14.40;;;;;;;10.85;55.67;101102.84;4860987;28;122805;-73
2021/04/30 01:57:50;;;;;;;24.30;14.57;;;;;;;10.83;55.39;101104.69;4867015;28;123023;-73
2021/04/30 02:00:20;;;;;;;27.02;14.68;;;;;;;10.80;55.93;101104.84;4878899;28;119948;-73
2021/04/30 02:02:49;;;;;;;24.83;15.18;;;;;;;10.80;55.58;101104.84;4875267;28;117795;-73
2021/04/30 02:05:16;;;;;;;20.05;14.68;;;;;;;10.80;55.65;101107.50;4877868;28;124288;-73
2021/04/30 02:07:43;;;;;;;24.88;15.50;;;;;;;10.79;55.95;101108.41;4872587;28;124188;-73
2021/04/30 02:10:15;;;;;;;29.10;16.73;;;;;;;10.78;55.96;101101.38;4877144;28;119169;-73
2021/04/30 02:12:43;;;;;;;25.30;15.88;;;;;;;10.76;56.16;101103.25;4879429;28;119126;-73
2021/04/30 02:15:12;;;;;;;28.65;15.63;;;;;;;10.75;55.96;101102.38;4859149;28;122774;-73
2021/04/30 02:17:38;;;;;;;26.75;17.05;;;;;;;10.76;56.01;101103.25;4858074;28;122942;-73
2021/04/30 02:20:06;;;;;;;28.33;16.85;;;;;;;10.76;56.20;101103.25;4866038;28;119300;-73
2021/04/30 02:22:34;;;;;;;26.88;16.98;;;;;;;10.75;56.04;101096.22;4855774;28;118842;-73
2021/04/30 02:25:02;;;;;;;28.23;16.63;;;;;;;10.74;56.10;101099.78;4859226;28;123087;-73
2021/04/30 02:27:29;;;;;;;28.80;18.17;;;;;;;10.75;56.19;101101.50;4857464;28;123354;-73
2021/04/30 02:29:55;;;;;;;29.38;18.33;;;;;;;10.76;56.43;101103.25;4876424;28;119119;-73
2021/04/30 02:32:23;;;;;;;26.83;17.45;;;;;;;10.77;56.30;101104.94;4867686;28;118890;-72
2021/04/30 02:34:52;;;;;;;30.23;17.92;;;;;;;10.77;56.44;101104.94;4874793;28;124472;-72
2021/04/30 02:37:19;;;;;;;27.20;17.52;;;;;;;10.78;56.13;101106.69;4879277;28;123674;-73
2021/04/30 02:39:46;;;;;;;32.08;19.05;;;;;;;10.80;56.24;101111.00;4875789;28;119015;-73
2021/04/30 02:42:13;;;;;;;29.95;18.55;;;;;;;10.82;56.63;101116.22;4873539;28;118506;-73
2021/04/30 02:44:40;;;;;;;28.25;18.42;;;;;;;10.84;56.34;101109.94;4876384;28;124805;-73
2021/04/30 02:47:06;;;;;;;30.77;18.52;;;;;;;10.87;56.29;101116.91;4874220;28;124613;-72
2021/04/30 02:49:40;;;;;;;28.65;16.77;;;;;;;10.90;56.45;101116.75;4879259;28;118984;-73
2021/04/30 02:52:09;;;;;;;27.80;16.90;;;;;;;10.90;56.38;101114.97;4875852;28;117501;-73
2021/04/30 02:54:36;;;;;;;26.00;16.17;;;;;;;10.91;56.42;101127.31;4868052;28;121265;-73
2021/04/30 02:57:04;;;;;;;26.08;16.27;;;;;;;10.89;56.12;101123.00;4879280;28;124571;-73
2021/04/30 02:59:31;;;;;;;25.92;17.35;;;;;;;10.89;56.17;101115.06;4874696;28;119267;-73
2021/04/30 03:01:58;;;;;;;27.05;17.00;;;;;;;10.88;56.31;101124.75;4871157;28;117014;-72
2021/04/30 03:04:25;;;;;;;28.05;17.15;;;;;;;10.89;56.03;101120.34;4873801;28;124436;-73
2021/04/30 03:06:51;;;;;;;25.55;17.00;;;;;;;10.89;56.09;101120.34;4858809;28;124504;-73
2021/04/30 03:09:18;;;;;;;24.52;16.90;;;;;;;10.88;56.33;101115.97;4877135;28;120081;-73
2021/04/30 03:11:45;;;;;;;26.45;17.25;;;;;;;10.86;56.25;101120.47;4895879;28;120139;-73
2021/04/30 03:14:11;;;;;;;29.80;17.77;;;;;;;10.86;56.21;101117.81;4896870;28;123390;-73
2021/04/30 03:16:38;;;;;;;29.42;17.27;;;;;;;10.86;56.48;101115.16;4868810;28;122807;-73
2021/04/30 03:19:05;;;;;;;23.70;16.63;;;;;;;10.86;56.50;101109.88;4893941;28;119678;-72
2021/04/30 03:21:31;;;;;;;29.15;17.50;;;;;;;10.86;56.42;101115.16;4884704;28;118484;-73
2021/04/30 03:23:58;;;;;;;22.48;16.17;;;;;;;10.85;56.33;101113.44;4883499;28;124076;-72
2021/04/30 03:26:25;;;;;;;25.42;17.15;;;;;;;10.86;56.42;101109.88;4882558;28;124826;-73
2021/04/30 03:28:51;;;;;;;26.73;17.00;;;;;;;10.86;56.69;101109.88;4877484;28;119325;-73
2021/04/30 03:31:18;;;;;;;26.13;17.10;;;;;;;10.86;56.14;101109.88;4870772;28;118401;-73
2021/04/30 03:33:45;;;;;;;29.02;17.90;;;;;;;10.85;56.23;101109.03;4869071;28;123235;-73
2021/04/30 03:36:12;;;;;;;26.98;16.98;;;;;;;10.85;56.68;101108.13;4856392;28;123128;-73
2021/04/30 03:38:38;;;;;;;29.42;18.48;;;;;;;10.85;56.53;101113.44;4878679;28;119540;-73
2021/04/30 03:41:05;;;;;;;27.48;18.13;;;;;;;10.86;56.50;101109.88;4870540;28;118786;-73
2021/04/30 03:43:31;;;;;;;28.85;17.02;;;;;;;10.88;56.38;101105.38;4875955;28;124034;-73
2021/04/30 03:45:59;;;;;;;30.48;18.00;;;;;;;10.89;56.49;101112.41;4859174;28;123606;-73
2021/04/30 03:48:27;;;;;;;35.22;17.65;;;;;;;10.90;56.64;101101.72;4877956;28;119409;-73
2021/04/30 03:50:54;;;;;;;25.75;18.55;;;;;;;10.93;56.38;101099.88;4871613;28;118175;-73
2021/04/30 03:53:21;;;;;;;30.25;18.20;;;;;;;10.93;56.58;101106.03;4875973;28;124093;-73
2021/04/30 03:55:48;;;;;;;29.67;18.15;;;;;;;10.94;56.63;101107.75;4891196;23;124418;-65
2021/04/30 03:58:15;;;;;;;29.17;17.58;;;;;;;10.96;56.34;101105.88;4897657;28;118167;-65
2021/04/30 04:00:42;;;;;;;28.90;18.35;;;;;;;10.99;56.66;101113.72;4922050;28;119999;-63
2021/04/30 04:03:09;;;;;;;29.38;18.17;;;;;;;11.00;56.36;101110.16;4920821;28;124803;-63
2021/04/30 04:05:36;;;;;;;28.67;17.98;;;;;;;11.02;56.78;101110.94;4921882;28;123980;-63
2021/04/30 04:08:04;;;;;;;30.08;17.40;;;;;;;11.03;56.75;101117.97;4922547;28;119707;-63
2021/04/30 04:10:31;;;;;;;31.65;17.60;;;;;;;11.04;56.71;101119.69;4907153;28;119036;-63
2021/04/30 04:12:58;;;;;;;26.17;17.85;;;;;;;11.06;56.73;101111.69;4902776;28;123095;-64
2021/04/30 04:15:24;;;;;;;31.40;17.58;;;;;;;11.06;56.42;101112.53;4893702;28;123235;-63
2021/04/30 04:17:51;;;;;;;27.80;17.42;;;;;;;11.07;56.67;101119.53;4897589;28;119452;-64
2021/04/30 04:20:18;;;;;;;27.75;18.25;;;;;;;11.08;56.60;101115.97;4921397;28;119211;-64
2021/04/30 04:22:45;;;;;;;31.42;18.33;;;;;;;11.10;56.61;101124.72;4895322;28;123997;-64
2021/04/30 04:25:12;;;;;;;31.73;18.52;;;;;;;11.09;56.68;101133.63;4911301;28;124736;-63
2021/04/30 04:27:39;;;;;;;26.60;17.98;;;;;;;11.10;56.58;101145.94;4921370;28;120253;-64
2021/04/30 04:30:08;;;;;;;29.17;18.15;;;;;;;11.09;56.83;101135.41;4892370;28;118457;-64
2021/04/30 04:32:34;;;;;;;31.55;18.95;;;;;;;11.10;56.33;101135.34;4892204;28;123989;-64
2021/04/30 04:35:02;;;;;;;30.90;18.02;;;;;;;11.13;56.38;101133.47;4916284;28;124288;-64
2021/04/30 04:37:28;;;;;;;30.38;18.05;;;;;;;11.13;56.72;101129.03;4900743;28;118868;-64
2021/04/30 04:39:55;;;;;;;32.70;18.23;;;;;;;11.14;56.84;101125.47;4915743;28;119118;-65
2021/04/30 04:42:22;;;;;;;30.67;18.67;;;;;;;11.16;56.87;101130.72;4913369;28;123585;-64
2021/04/30 04:44:49;;;;;;;29.67;18.35;;;;;;;11.17;56.82;101137.72;4905443;28;123070;-65
2021/04/30 04:47:15;;;;;;;28.10;18.42;;;;;;;11.18;56.54;101136.81;4920220;28;120492;-65
2021/04/30 04:49:42;;;;;;;30.00;18.40;;;;;;;11.19;56.72;101133.19;4920712;28;120788;-65
2021/04/30 04:52:09;;;;;;;26.55;18.55;;;;;;;11.20;56.58;101138.44;4927533;28;123859;-64
2021/04/30 04:54:36;;;;;;;28.13;18.50;;;;;;;11.22;56.79;101143.69;4903086;28;122832;-64
2021/04/30 04:57:08;;;;;;;34.13;19.73;;;;;;;11.26;56.60;101145.28;4898401;28;118305;-63
2021/04/30 04:59:35;;;;;;;26.65;18.15;;;;;;;11.26;56.73;101145.28;4894678;28;117781;-65
2021/04/30 05:02:02;;;;;;;29.98;19.80;;;;;;;11.27;56.58;101149.66;4920180;28;124251;-65
2021/04/30 05:04:30;;;;;;;31.13;18.70;;;;;;;11.27;56.53;101147.00;4922782;28;123976;-64
2021/04/30 05:06:56;;;;;;;35.03;19.50;;;;;;;11.28;56.75;101149.59;4901037;28;118718;-65
2021/04/30 05:09:23;;;;;;;28.55;18.55;;;;;;;11.29;56.56;101155.75;4906177;28;118293;-65
2021/04/30 05:11:50;;;;;;;35.17;18.55;;;;;;;11.32;56.84;101155.66;4896917;28;124848;-65
2021/04/30 05:14:18;;;;;;;32.28;19.88;;;;;;;11.34;56.91;101156.44;4917491;28;124699;-64
2021/04/30 05:17:05;;;;;;;31.90;19.60;;;;;;;11.36;56.82;101162.53;4922775;28;119340;-64
2021/04/30 05:19:31;;;;;;;29.40;19.08;;;;;;;11.40;56.44;101169.41;4906433;28;119362;-64
2021/04/30 05:21:58;;;;;;;34.55;19.35;;;;;;;11.41;56.50;101164.97;4921272;28;124887;-64
2021/04/30 05:24:26;;;;;;;30.52;19.20;;;;;;;11.40;56.66;101169.41;4917962;28;124412;-64
2021/04/30 05:26:53;;;;;;;33.10;19.58;;;;;;;11.38;56.70;101160.66;4924288;28;119201;-64
2021/04/30 05:29:20;;;;;;;30.83;20.33;;;;;;;11.35;56.63;101155.50;4918742;28;119271;-64
2021/04/30 05:31:46;;;;;;;29.73;19.88;;;;;;;11.35;56.56;101155.50;4890717;28;123756;-63
2021/04/30 05:34:13;;;;;;;25.85;20.05;;;;;;;11.35;56.95;101160.78;4912285;28;122703;-63
2021/04/30 05:36:40;;;;;;;30.52;19.90;;;;;;;11.36;56.79;101165.19;4912913;28;120401;-63
2021/04/30 05:39:06;;;;;;;31.45;20.42;;;;;;;11.36;56.55;101162.53;4895466;28;119679;-63
2021/04/30 05:41:33;;;;;;;28.17;19.70;;;;;;;11.37;56.80;101174.84;4928856;28;123972;-64
2021/04/30 05:44:00;;;;;;;30.98;20.77;;;;;;;11.38;57.03;101176.59;4928547;28;123922;-63
2021/04/30 05:46:27;;;;;;;30.85;21.95;;;;;;;11.40;57.14;101180.03;4893254;28;119818;-64
2021/04/30 05:48:54;;;;;;;35.03;21.33;;;;;;;11.42;56.85;101185.28;4920952;28;119428;-64
2021/04/30 05:51:20;;;;;;;35.13;21.20;;;;;;;11.44;56.88;101186.91;4906574;28;123190;-64
2021/04/30 05:53:47;;;;;;;33.88;21.73;;;;;;;11.46;56.88;101185.06;4896043;28;122901;-64
2021/04/30 05:56:28;;;;;;;34.22;20.92;;;;;;;11.49;57.10;101184.94;4910467;28;120067;-63
2021/04/30 05:58:55;;;;;;;32.50;20.67;;;;;;;11.52;56.88;101193.69;4909362;28;119068;-63
2021/04/30 06:01:22;;;;;;;29.70;21.05;;;;;;;11.52;56.92;101183.94;4920665;28;124322;-63
2021/04/30 06:03:49;;;;;;;28.50;20.40;;;;;;;11.52;56.72;101199.84;4909657;28;124765;-63
2021/04/30 06:06:16;;;;;;;32.20;20.90;;;;;;;11.49;56.50;101192.91;4913608;28;119613;-63
2021/04/30 06:08:43;;;;;;;30.83;19.60;;;;;;;11.48;56.69;101199.13;4929831;28;119367;-63
2021/04/30 06:11:10;;;;;;;34.95;20.98;;;;;;;11.48;56.83;101198.25;4927621;28;124910;-64
2021/04/30 06:13:37;;;;;;;34.78;20.30;;;;;;;11.47;56.83;101197.41;4926364;28;123874;-64
2021/04/30 06:16:04;;;;;;;29.85;20.35;;;;;;;11.49;56.84;101200.84;4922860;28;119674;-64
2021/04/30 06:18:32;;;;;;;32.97;20.50;;;;;;;11.50;56.96;101197.25;4917558;28;119492;-64
2021/04/30 06:20:59;;;;;;;36.92;20.80;;;;;;;11.52;56.98;101191.88;4919550;28;123938;-64
2021/04/30 06:23:26;;;;;;;33.63;21.27;;;;;;;11.52;56.79;101189.25;4905216;28;123093;-64
2021/04/30 06:25:53;;;;;;;31.10;20.25;;;;;;;11.54;56.94;101191.81;4910333;28;120127;-64
2021/04/30 06:28:19;;;;;;;32.75;20.42;;;;;;;11.55;56.87;101193.56;4911765;28;119094;-64
2021/04/30 06:30:47;;;;;;;35.53;21.55;;;;;;;11.56;56.58;101195.28;4912471;28;123031;-63
2021/04/30 06:33:13;;;;;;;30.02;21.00;;;;;;;11.57;56.82;101191.69;4926981;28;123882;-64
2021/04/30 06:35:40;;;;;;;32.22;21.60;;;;;;;11.60;56.91;101183.59;4920771;28;119611;-64
2021/04/30 06:38:07;;;;;;;37.13;21.58;;;;;;;11.61;57.12;101182.69;4924952;28;118983;-63
2021/04/30 06:40:33;;;;;;;32.80;21.23;;;;;;;11.64;56.83;101182.53;4918825;28;124475;-63
2021/04/30 06:43:00;;;;;;;32.30;21.23;;;;;;;11.67;57.25;101182.41;4925279;28;123862;-63
2021/04/30 06:45:27;;;;;;;30.55;21.48;;;;;;;11.70;57.34;101192.88;4906069;28;118488;-63
2021/04/30 06:47:54;;;;;;;30.27;20.35;;;;;;;11.74;57.40;101199.78;4916892;28;119371;-63
2021/04/30 06:50:21;;;;;;;31.73;20.85;;;;;;;11.78;57.49;101200.50;4912191;28;124158;-63
2021/04/30 06:52:53;;;;;;;37.22;21.67;;;;;;;11.82;57.17;101197.63;4928745;28;124241;-63
2021/04/30 06:55:20;;;;;;;36.78;21.70;;;;;;;11.85;57.33;101194.84;4911067;28;119876;-64
2021/04/30 06:57:47;;;;;;;34.08;22.30;;;;;;;11.90;57.13;101201.78;4915028;28;119661;-64
2021/04/30 07:00:18;;;;;;;33.08;22.05;;;;;;;11.95;57.45;101213.06;4912225;28;124204;-64
2021/04/30 07:02:45;;;;;;;32.97;22.02;;;;;;;11.97;57.10;101208.53;4912110;28;123631;-64
2021/04/30 07:05:12;;;;;;;38.70;22.65;;;;;;;11.99;56.94;101214.63;4894892;28;118072;-63
2021/04/30 07:07:40;;;;;;;31.00;21.42;;;;;;;11.99;57.00;101214.63;4899705;28;118064;-64
2021/04/30 07:10:08;;;;;;;38.35;21.92;;;;;;;12.00;56.73;101216.38;4910438;28;123193;-64
2021/04/30 07:12:37;;;;;;;43.45;23.27;;;;;;;11.99;57.16;101219.94;4907091;28;124019;-64
2021/04/30 07:15:08;;;;;;;36.83;22.30;;;;;;;12.00;56.84;101211.06;4901060;28;121006;-64
2021/04/30 07:17:35;;;;;;;36.35;22.77;;;;;;;12.00;56.79;101216.38;4912035;28;121043;-65
2021/04/30 07:20:03;;;;;;;37.28;23.35;;;;;;;12.02;56.86;101209.22;4920760;28;124185;-63
2021/04/30 07:22:30;;;;;;;35.53;23.48;;;;;;;12.03;57.10;101210.91;4913156;28;123997;-63
2021/04/30 07:24:56;;;;;;;41.38;23.50;;;;;;;12.05;57.19;101209.03;4914822;28;119894;-63
2021/04/30 07:27:23;;;;;;;39.20;23.75;;;;;;;12.10;57.10;101212.38;4916390;28;119108;-63
2021/04/30 07:29:50;;;;;;;39.28;23.25;;;;;;;12.13;57.32;101206.91;4914095;28;124469;-63
2021/04/30 07:32:17;;;;;;;38.95;23.48;;;;;;;12.16;57.25;101217.38;4930167;28;124227;-64
2021/04/30 07:34:44;;;;;;;40.00;22.45;;;;;;;12.19;57.08;101217.25;4904432;28;118409;-63
2021/04/30 07:37:11;;;;;;;35.53;22.67;;;;;;;12.22;57.05;101217.13;4923932;28;119100;-63
2021/04/30 07:39:40;;;;;;;33.50;23.65;;;;;;;12.23;57.18;101224.13;4896585;28;123710;-63
2021/04/30 07:42:08;;;;;;;36.28;22.17;;;;;;;12.27;57.19;101220.41;4927889;28;123935;-63
2021/04/30 07:44:38;;;;;;;41.53;23.48;;;;;;;12.29;57.25;101217.69;4931681;28;119145;-63
2021/04/30 07:47:05;;;;;;;45.58;24.15;;;;;;;12.33;57.18;101218.41;4913737;28;118814;-63
2021/04/30 07:49:32;;;;;;;36.72;23.73;;;;;;;12.35;56.87;101217.41;4929477;28;124772;-63
2021/04/30 07:52:00;;;;;;;43.70;23.77;;;;;;;12.39;57.19;101215.47;4904064;28;123438;-63
2021/04/30 07:54:27;;;;;;;46.42;24.42;;;;;;;12.42;57.30;101215.31;4912292;28;119535;-63
2021/04/30 07:56:58;;;;;;;48.67;26.92;;;;;;;12.45;57.31;101217.81;4918186;28;119638;-63
2021/04/30 07:59:24;;;;;;;40.78;25.00;;;;;;;12.47;57.14;101221.28;4913620;28;124743;-63
2021/04/30 08:01:51;;;;;;;36.40;24.75;;;;;;;12.49;56.91;101222.09;4911615;28;124230;-63
2021/04/30 08:04:18;;;;;;;44.63;24.42;;;;;;;12.50;56.99;101221.13;4920165;28;120689;-63
2021/04/30 08:06:44;;;;;;;45.58;25.80;;;;;;;12.53;56.98;101214.84;4910235;28;119041;-63
2021/04/30 08:09:12;;;;;;;40.15;25.45;;;;;;;12.54;57.29;101222.69;4901872;28;123977;-63
2021/04/30 08:11:38;;;;;;;37.88;25.13;;;;;;;12.59;57.41;101215.38;4922235;28;123835;-63
2021/04/30 08:14:09;;;;;;;41.25;25.55;;;;;;;12.66;57.49;101211.50;4930968;28;119952;-64
2021/04/30 08:16:36;;;;;;;40.08;26.02;;;;;;;12.75;57.21;101214.66;4930022;28;118828;-64
2021/04/30 08:19:05;;;;;;;35.45;24.65;;;;;;;12.82;57.34;101221.41;4911402;28;123275;-63
2021/04/30 08:21:32;;;;;;;39.15;24.95;;;;;;;12.88;57.23;101221.09;4906049;28;122813;-63
2021/04/30 08:23:59;;;;;;;43.38;25.73;;;;;;;12.92;56.98;101222.69;4895789;28;118516;-63
2021/04/30 08:26:30;;;;;;;38.05;24.83;;;;;;;12.95;57.27;101227.84;4921445;28;118935;-63
2021/04/30 08:28:58;;;;;;;35.13;24.45;;;;;;;13.00;56.98;101225.81;4926868;28;124044;-63
2021/04/30 08:31:26;;;;;;;38.25;24.30;;;;;;;13.10;57.09;101225.38;4910594;28;124154;-63
2021/04/30 08:33:53;;;;;;;34.28;24.75;;;;;;;13.17;56.93;101232.13;4922013;28;119990;-63
2021/04/30 08:36:21;;;;;;;34.60;23.95;;;;;;;13.23;56.67;101231.81;4912480;28;118522;-63
2021/04/30 08:38:48;;;;;;;36.03;24.67;;;;;;;13.27;56.63;101233.38;4928185;28;124275;-63
2021/04/30 08:41:17;;;;;;;31.63;24.35;;;;;;;13.31;56.78;101232.28;4929043;28;124021;-63
2021/04/30 08:43:46;;;;;;;35.53;24.60;;;;;;;13.37;56.84;101237.34;4903200;28;119565;-63
2021/04/30 08:46:13;;;;;;;33.47;23.80;;;;;;;13.40;56.41;101245.13;4902253;28;118075;-63
2021/04/30 08:48:40;;;;;;;37.15;24.95;;;;;;;13.41;56.48;101241.56;4914498;28;124293;-62
2021/04/30 08:51:07;;;;;;;34.95;24.25;;;;;;;13.42;56.62;101240.59;4919964;28;123860;-63
2021/04/30 08:53:34;;;;;;;41.83;24.17;;;;;;;13.47;56.58;101239.50;4898357;28;120382;-63
2021/04/30 08:56:03;;;;;;;36.58;24.50;;;;;;;13.49;56.52;101242.97;4919423;28;120154;-63
2021/04/30 08:58:33;;;;;;;36.30;24.75;;;;;;;13.48;56.51;101246.56;4920826;28;123868;-63
2021/04/30 09:01:00;;;;;;;35.30;24.30;;;;;;;13.50;56.40;101250.84;4919683;28;124022;-63
2021/04/30 09:03:27;;;;;;;33.20;23.70;;;;;;;13.53;56.38;101244.53;4912427;28;119063;-63
2021/04/30 09:05:55;;;;;;;34.75;24.27;;;;;;;13.55;56.54;101247.97;4918940;28;119377;-63
2021/04/30 09:08:26;;;;;;;35.05;23.83;;;;;;;13.58;56.45;101253.13;4916298;28;125126;-63
2021/04/30 09:11:09;;;;;;;33.97;22.90;;;;;;;13.62;56.45;101260.03;4924518;28;125168;-63
2021/04/30 09:13:40;;;;;;;32.33;23.65;;;;;;;13.64;56.07;101260.81;4918933;28;119488;-63
2021/04/30 09:16:07;;;;;;;33.30;23.85;;;;;;;13.66;56.04;101261.59;4920482;28;119403;-63
2021/04/30 09:18:34;;;;;;;30.77;23.42;;;;;;;13.66;55.77;101261.59;4912241;28;124630;-63
2021/04/30 09:21:07;;;;;;;32.88;23.20;;;;;;;13.68;55.89;101265.03;4901210;28;123467;-63
2021/04/30 09:23:45;;;;;;;30.55;22.02;;;;;;;13.65;55.86;101262.53;4917004;28;119390;-63
2021/04/30 09:26:30;;;;;;;25.92;20.13;;;;;;;13.62;55.87;101270.69;4903601;28;119115;-63
2021/04/30 09:29:04;;;;;;;28.60;21.30;;;;;;;13.60;55.90;101264.56;4905422;28;122960;-63
2021/04/30 09:31:33;;;;;;;29.77;21.17;;;;;;;13.58;55.95;101269.09;4902960;28;122574;-63
2021/04/30 09:34:18;;;;;;;22.88;17.95;;;;;;;13.57;55.85;101264.72;4897558;28;118354;-63
2021/04/30 09:37:14;;;;;;;22.63;16.13;;;;;;;13.58;55.89;101263.75;4906137;28;118235;-63
2021/04/30 09:39:58;;;;;;;22.00;15.45;;;;;;;13.56;55.79;101276.28;4910779;28;124829;-63
2021/04/30 09:42:28;;;;;;;18.88;14.88;;;;;;;13.55;55.56;101269.25;4928247;28;123917;-63
2021/04/30 09:44:58;;;;;;;23.30;16.60;;;;;;;13.53;55.84;101268.47;4899600;28;119427;-63
2021/04/30 09:47:26;;;;;;;22.10;17.52;;;;;;;13.53;55.64;101271.16;4904421;28;119202;-63
2021/04/30 09:49:55;;;;;;;24.30;18.33;;;;;;;13.53;55.62;101276.47;4925516;28;124232;-63
2021/04/30 09:52:23;;;;;;;23.70;17.92;;;;;;;13.54;55.77;101283.50;4899718;28;123842;-64
2021/04/30 09:54:51;;;;;;;25.02;18.67;;;;;;;13.58;56.03;101274.41;4897185;28;118480;-63
2021/04/30 09:57:21;;;;;;;23.40;16.77;;;;;;;13.61;55.70;101276.94;4941167;23;119133;-72
2021/04/30 09:59:51;;;;;;;23.38;15.60;;;;;;;13.64;55.79;101279.44;4908339;28;124418;-72
2021/04/30 10:02:20;;;;;;;20.38;16.20;;;;;;;13.67;55.55;101268.63;4901321;28;123167;-71
2021/04/30 10:04:50;;;;;;;23.10;16.92;;;;;;;13.74;55.72;101272.69;4920693;28;118322;-72
2021/04/30 10:07:31;;;;;;;23.15;17.63;;;;;;;13.81;56.05;101271.44;4907269;28;116875;-72
2021/04/30 10:10:06;;;;;;;21.65;17.38;;;;;;;13.91;55.73;101278.97;4908759;28;123726;-72
2021/04/30 10:12:34;;;;;;;25.50;17.20;;;;;;;13.99;55.50;101279.41;4910256;28;124643;-73
2021/04/30 10:15:01;;;;;;;25.85;17.45;;;;;;;14.07;55.44;101269.22;4908238;28;119919;-72
2021/04/30 10:17:27;;;;;;;19.38;16.13;;;;;;;14.15;55.38;101269.69;4910526;28;118818;-73
2021/04/30 10:19:54;;;;;;;24.60;17.90;;;;;;;14.25;55.06;101274.50;4885256;28;123163;-73
2021/04/30 10:22:25;;;;;;;22.58;16.70;;;;;;;14.34;55.18;101268.69;4904991;28;124674;-73
2021/04/30 10:25:18;;;;;;;19.75;16.35;;;;;;;14.46;54.99;101273.34;4902908;28;119124;-73
2021/04/30 10:27:53;;;;;;;19.92;15.50;;;;;;;14.54;54.41;101259.59;4890989;28;118098;-74
2021/04/30 10:30:35;;;;;;;;;;;;;;;14.58;54.39;101263.88;4903767;28;124610;-72
2021/04/30 10:33:41;;;;;;;25.67;17.58;;;;;;;14.62;54.32;101267.19;4891102;28;123171;-71
2021/04/30 10:36:13;;;;;;;25.00;18.15;;;;;;;14.62;54.22;101261.88;4889141;28;119153;-72
2021/04/30 10:38:46;;;;;;;24.20;18.05;;;;;;;14.62;53.97;101256.53;4907475;28;119610;-72
2021/04/30 10:41:14;;;;;;;25.85;17.92;;;;;;;14.64;54.11;101262.66;4908638;28;124012;-72
2021/04/30 10:43:41;;;;;;;25.10;16.75;;;;;;;14.67;54.03;101260.66;4911755;28;124495;-71
2021/04/30 10:46:21;;;;;;;28.50;18.15;;;;;;;14.70;53.99;101260.50;4897733;28;119643;-72
2021/04/30 10:49:03;;;;;;;28.55;19.67;;;;;;;14.73;53.90;101259.47;4893822;28;119125;-71
2021/04/30 10:51:32;;;;;;;28.73;19.40;;;;;;;14.78;53.72;101257.41;4881737;28;123114;-72
2021/04/30 10:54:24;;;;;;;28.50;19.73;;;;;;;14.80;53.96;101258.19;4911644;28;123773;-71
2021/04/30 10:57:04;;;;;;;22.70;17.13;;;;;;;14.90;53.95;101256.72;4911326;28;119575;-71
2021/04/30 10:59:41;;;;;;;21.27;16.38;;;;;;;14.97;53.79;101247.44;4909967;28;119820;-71
2021/04/30 11:02:38;;;;;;;21.02;15.95;;;;;;;15.05;53.56;101255.00;4897961;28;123998;-71
2021/04/30 11:05:05;;;;;;;22.90;16.27;;;;;;;15.12;53.56;101260.84;4893903;28;123161;-71
2021/04/30 11:07:41;;;;;;;26.70;16.88;;;;;;;15.17;53.13;101253.44;4910250;28;119740;-71
2021/04/30 11:10:26;;;;;;;22.60;15.77;;;;;;;15.24;53.33;101254.81;4888234;28;118363;-71